createdAt,value
2022-10-01T00:00:49.153Z,51.57
2022-10-01T00:03:15.673Z,51.84
2022-10-01T00:05:43.119Z,51.70
2022-10-01T00:08:09.562Z,51.50
2022-10-01T00:10:36.023Z,51.88
2022-10-01T00:13:02.466Z,51.56
2022-10-01T00:15:29.864Z,51.82
2022-10-01T00:17:56.291Z,51.83
2022-10-01T00:20:22.752Z,51.95
2022-10-01T00:22:50.114Z,51.69
2022-10-01T00:25:17.485Z,51.72
2022-10-01T00:27:44.023Z,51.54
2022-10-01T00:30:10.577Z,51.71
2022-10-01T00:32:37.019Z,51.61
2022-10-01T00:35:03.471Z,51.58
2022-10-01T00:37:30.867Z,51.93
2022-10-01T00:39:57.308Z,51.57
2022-10-01T00:42:24.716Z,51.92
2022-10-01T00:44:51.154Z,51.60
2022-10-01T00:47:18.511Z,51.34
2022-10-01T00:49:44.940Z,51.97
2022-10-01T00:52:11.399Z,52.12
2022-10-01T00:54:38.801Z,51.74
2022-10-01T00:57:06.234Z,51.94
2022-10-01T00:59:33.618Z,52.12
2022-10-01T01:02:00.112Z,51.79
2022-10-01T01:04:27.539Z,52.07
2022-10-01T01:06:53.985Z,51.76
2022-10-01T01:09:20.441Z,51.47
2022-10-01T01:11:46.848Z,51.92
2022-10-01T01:14:13.401Z,51.95
2022-10-01T01:16:40.787Z,51.72
2022-10-01T01:19:07.317Z,51.87
2022-10-01T01:21:34.890Z,51.81
2022-10-01T01:24:01.467Z,51.88
2022-10-01T01:26:27.910Z,51.95
2022-10-01T01:28:54.355Z,51.70
2022-10-01T01:31:21.777Z,51.55
2022-10-01T01:33:49.135Z,52.04
2022-10-01T01:36:15.601Z,51.92
2022-10-01T01:38:42.966Z,51.84
2022-10-01T01:41:09.420Z,51.92
2022-10-01T01:43:36.786Z,51.74
2022-10-01T01:46:03.487Z,51.76
2022-10-01T01:48:30.035Z,51.92
2022-10-01T01:50:56.495Z,51.47
2022-10-01T01:53:22.954Z,51.65
2022-10-01T01:55:49.407Z,51.70
2022-10-01T01:58:16.781Z,51.65
2022-10-01T02:00:44.145Z,51.51
2022-10-01T02:03:11.599Z,51.59
2022-10-01T02:05:38.047Z,51.47
2022-10-01T02:08:04.501Z,51.56
2022-10-01T02:10:30.947Z,51.38
2022-10-01T02:12:57.380Z,51.56
2022-10-01T02:15:24.755Z,51.42
2022-10-01T02:17:51.211Z,51.71
2022-10-01T02:20:18.617Z,51.93
2022-10-01T02:22:45.056Z,51.82
2022-10-01T02:25:11.478Z,51.50
2022-10-01T02:27:37.903Z,51.55
2022-10-01T02:30:04.375Z,51.61
2022-10-01T02:32:30.822Z,51.41
2022-10-01T02:34:58.210Z,51.41
2022-10-01T02:37:25.593Z,51.68
2022-10-01T02:39:52.037Z,51.47
2022-10-01T02:42:19.400Z,51.62
2022-10-01T02:44:45.867Z,51.47
2022-10-01T02:47:12.347Z,51.44
2022-10-01T02:49:38.774Z,51.47
2022-10-01T02:52:05.243Z,51.71
2022-10-01T02:54:32.607Z,51.29
2022-10-01T02:56:59.057Z,51.43
2022-10-01T02:59:25.643Z,51.39
2022-10-01T03:01:52.267Z,51.77
2022-10-01T03:04:19.665Z,51.51
2022-10-01T03:06:47.040Z,51.56
2022-10-01T03:09:14.454Z,51.49
2022-10-01T03:11:42.056Z,51.52
2022-10-01T03:14:08.539Z,51.39
2022-10-01T03:16:35.894Z,51.39
2022-10-01T03:19:02.360Z,51.61
2022-10-01T03:21:28.811Z,51.35
2022-10-01T03:23:55.323Z,51.47
2022-10-01T03:26:21.785Z,51.47
2022-10-01T03:28:48.229Z,51.46
2022-10-01T03:31:15.654Z,51.39
2022-10-01T03:33:42.130Z,51.51
2022-10-01T03:36:08.628Z,51.39
2022-10-01T03:38:35.987Z,51.63
2022-10-01T03:41:02.446Z,51.53
2022-10-01T03:43:28.896Z,51.64
2022-10-01T03:45:55.453Z,52.50
2022-10-01T03:48:21.943Z,51.67
2022-10-01T03:50:49.351Z,51.81
2022-10-01T03:53:16.729Z,51.58
2022-10-01T03:55:43.173Z,52.04
2022-10-01T03:58:09.636Z,52.48
2022-10-01T04:00:36.075Z,52.19
2022-10-01T04:03:02.655Z,52.38
2022-10-01T04:05:30.066Z,52.68
2022-10-01T04:07:56.505Z,53.09
2022-10-01T04:10:23.886Z,53.14
2022-10-01T04:12:51.253Z,53.74
2022-10-01T04:15:18.644Z,53.68
2022-10-01T04:17:46.052Z,53.90
2022-10-01T04:20:12.658Z,54.12
2022-10-01T04:22:39.917Z,53.81
2022-10-01T04:25:06.423Z,54.22
2022-10-01T04:27:32.854Z,54.15
2022-10-01T04:30:00.202Z,54.27
2022-10-01T04:32:26.628Z,54.38
2022-10-01T04:34:53.969Z,54.26
2022-10-01T04:37:20.455Z,54.16
2022-10-01T04:39:46.903Z,54.07
2022-10-01T04:42:14.274Z,54.28
2022-10-01T04:44:41.655Z,53.88
2022-10-01T04:47:08.232Z,54.31
2022-10-01T04:49:34.767Z,54.02
2022-10-01T04:52:01.200Z,54.08
2022-10-01T04:54:28.538Z,54.58
2022-10-01T04:56:55.895Z,54.03
2022-10-01T04:59:23.589Z,54.53
2022-10-01T05:01:50.938Z,54.63
2022-10-01T05:04:18.463Z,54.99
2022-10-01T05:06:45.115Z,55.18
2022-10-01T05:09:12.528Z,55.62
2022-10-01T05:11:41.106Z,55.47
2022-10-01T05:14:07.572Z,55.74
2022-10-01T05:16:34.093Z,55.88
2022-10-01T05:19:03.329Z,55.85
2022-10-01T05:21:29.745Z,55.81
2022-10-01T05:23:57.095Z,55.40
2022-10-01T05:26:23.486Z,55.37
2022-10-01T05:28:50.899Z,55.36
2022-10-01T05:31:17.330Z,55.37
2022-10-01T05:33:44.721Z,55.58
2022-10-01T05:36:11.181Z,55.62
2022-10-01T05:38:38.511Z,55.21
2022-10-01T05:41:05.911Z,55.16
2022-10-01T05:43:32.358Z,55.61
2022-10-01T05:45:58.875Z,55.17
2022-10-01T05:48:25.340Z,54.90
2022-10-01T05:50:51.848Z,55.03
2022-10-01T05:53:18.319Z,54.94
2022-10-01T05:55:44.768Z,55.10
2022-10-01T05:58:12.142Z,54.76
2022-10-01T06:00:38.615Z,54.98
2022-10-01T06:03:06.056Z,54.97
2022-10-01T06:05:32.581Z,54.73
2022-10-01T06:07:59.983Z,54.61
2022-10-01T06:10:27.447Z,54.69
2022-10-01T06:12:54.874Z,54.92
2022-10-01T06:15:21.315Z,54.64
2022-10-01T06:17:47.778Z,54.52
2022-10-01T06:20:14.263Z,54.38
2022-10-01T06:22:40.701Z,54.07
2022-10-01T06:25:07.172Z,54.58
2022-10-01T06:27:34.587Z,54.14
2022-10-01T06:30:01.080Z,54.25
2022-10-01T06:32:32.764Z,54.06
2022-10-01T06:35:02.181Z,54.16
2022-10-01T06:37:29.556Z,54.20
2022-10-01T06:39:56.951Z,53.53
2022-10-01T06:42:24.351Z,53.89
2022-10-01T06:44:51.726Z,54.21
2022-10-01T06:47:18.246Z,54.12
2022-10-01T06:49:47.666Z,54.07
2022-10-01T06:52:15.315Z,53.92
2022-10-01T06:54:41.794Z,53.83
2022-10-01T06:57:08.260Z,53.88
2022-10-01T06:59:34.720Z,54.09
2022-10-01T07:02:02.158Z,54.13
2022-10-01T07:04:28.712Z,54.13
2022-10-01T07:06:55.162Z,54.28
2022-10-01T07:09:21.619Z,54.17
2022-10-01T07:11:48.076Z,54.28
2022-10-01T07:14:15.452Z,53.87
2022-10-01T07:16:41.968Z,53.52
2022-10-01T07:19:08.518Z,52.16
2022-10-01T07:21:35.247Z,53.35
2022-10-01T07:24:02.050Z,53.72
2022-10-01T07:26:28.510Z,53.73
2022-10-01T07:28:54.965Z,53.57
2022-10-01T07:31:21.478Z,53.23
2022-10-01T07:33:47.968Z,53.06
2022-10-01T07:36:15.362Z,52.79
2022-10-01T07:38:41.848Z,52.74
2022-10-01T07:41:08.522Z,52.26
2022-10-01T07:43:35.921Z,51.91
2022-10-01T07:46:02.443Z,51.78
2022-10-01T07:48:28.913Z,51.49
2022-10-01T07:50:56.364Z,51.92
2022-10-01T07:53:22.859Z,51.58
2022-10-01T07:55:50.220Z,51.65
2022-10-01T07:58:17.636Z,51.38
2022-10-01T08:00:44.055Z,51.03
2022-10-01T08:03:11.401Z,51.43
2022-10-01T08:05:37.851Z,51.02
2022-10-01T08:08:05.220Z,50.99
2022-10-01T08:10:31.640Z,51.51
2022-10-01T08:12:59.021Z,51.26
2022-10-01T08:15:26.346Z,51.03
2022-10-01T08:17:53.705Z,50.98
2022-10-01T08:20:20.219Z,51.07
2022-10-01T08:22:46.677Z,51.30
2022-10-01T08:25:13.107Z,51.26
2022-10-01T08:27:40.467Z,51.22
2022-10-01T08:30:07.831Z,51.58
2022-10-01T08:32:34.289Z,51.67
2022-10-01T08:35:00.757Z,51.66
2022-10-01T08:37:27.221Z,52.07
2022-10-01T08:39:53.666Z,51.98
2022-10-01T08:42:21.066Z,51.93
2022-10-01T08:44:47.601Z,51.82
2022-10-01T08:47:15.049Z,51.97
2022-10-01T08:49:41.528Z,51.98
2022-10-01T08:52:08.019Z,51.74
2022-10-01T08:54:34.478Z,51.74
2022-10-01T08:57:00.942Z,51.72
2022-10-01T08:59:27.599Z,51.81
2022-10-01T09:01:54.070Z,51.71
2022-10-01T09:04:21.563Z,51.65
2022-10-01T09:06:49.085Z,51.60
2022-10-01T09:09:16.466Z,51.42
2022-10-01T09:11:42.938Z,51.67
2022-10-01T09:14:09.428Z,51.66
2022-10-01T09:16:35.898Z,51.89
2022-10-01T09:19:02.443Z,51.77
2022-10-01T09:21:28.884Z,51.92
2022-10-01T09:23:55.332Z,51.89
2022-10-01T09:26:25.745Z,51.80
2022-10-01T09:28:52.323Z,52.31
2022-10-01T09:31:19.664Z,51.80
2022-10-01T09:33:46.109Z,51.98
2022-10-01T09:36:13.441Z,52.31
2022-10-01T09:38:40.664Z,52.46
2022-10-01T09:41:09.730Z,52.40
2022-10-01T09:43:37.603Z,52.32
2022-10-01T09:46:04.603Z,52.31
2022-10-01T09:48:31.238Z,52.77
2022-10-01T09:50:58.490Z,53.22
2022-10-01T09:53:24.947Z,52.92
2022-10-01T09:55:51.370Z,53.53
2022-10-01T09:58:18.735Z,53.50
2022-10-01T10:00:45.188Z,53.48
2022-10-01T10:03:11.729Z,53.64
2022-10-01T10:05:38.259Z,53.14
2022-10-01T10:08:04.714Z,53.56
2022-10-01T10:10:32.065Z,53.63
2022-10-01T10:12:59.460Z,53.77
2022-10-01T10:15:26.851Z,53.82
2022-10-01T10:17:53.296Z,53.46
2022-10-01T10:20:19.772Z,53.35
2022-10-01T10:22:47.165Z,53.63
2022-10-01T10:25:13.610Z,53.43
2022-10-01T10:27:40.063Z,53.64
2022-10-01T10:30:07.403Z,54.01
2022-10-01T10:32:34.783Z,53.60
2022-10-01T10:35:03.445Z,53.24
2022-10-01T10:37:30.105Z,53.40
2022-10-01T10:39:57.504Z,53.52
2022-10-01T10:42:23.955Z,53.07
2022-10-01T10:44:51.412Z,53.24
2022-10-01T10:47:18.838Z,53.22
2022-10-01T10:49:45.371Z,53.70
2022-10-01T10:52:11.838Z,53.41
2022-10-01T10:54:38.312Z,53.43
2022-10-01T10:57:04.793Z,53.73
2022-10-01T10:59:32.198Z,53.25
2022-10-01T11:01:58.805Z,53.87
2022-10-01T11:04:26.250Z,53.29
2022-10-01T11:06:52.699Z,53.71
2022-10-01T11:09:20.068Z,53.09
2022-10-01T11:11:46.514Z,53.32
2022-10-01T11:14:12.964Z,53.43
2022-10-01T11:16:39.402Z,53.51
2022-10-01T11:19:06.724Z,53.27
2022-10-01T11:21:33.178Z,52.74
2022-10-01T11:24:00.595Z,52.49
2022-10-01T11:26:27.926Z,52.41
2022-10-01T11:28:54.379Z,52.51
2022-10-01T11:31:20.832Z,53.12
2022-10-01T11:33:48.107Z,53.54
2022-10-01T11:36:14.530Z,53.32
2022-10-01T11:38:42.799Z,54.39
2022-10-01T11:41:10.029Z,54.65
2022-10-01T11:43:36.531Z,54.97
2022-10-01T11:46:05.697Z,54.92
2022-10-01T11:48:33.073Z,54.21
2022-10-01T11:51:00.330Z,54.09
2022-10-01T11:53:26.766Z,54.86
2022-10-01T11:55:55.098Z,54.61
2022-10-01T11:58:22.356Z,54.66
2022-10-01T12:00:48.847Z,54.76
2022-10-01T12:03:17.164Z,55.17
2022-10-01T12:05:45.487Z,55.56
2022-10-01T12:08:13.797Z,55.22
2022-10-01T12:10:42.091Z,55.95
2022-10-01T12:13:10.380Z,55.32
2022-10-01T12:15:36.773Z,55.01
2022-10-01T12:18:05.916Z,54.96
2022-10-01T12:20:32.287Z,54.53
2022-10-01T12:23:01.416Z,54.20
2022-10-01T12:25:27.799Z,53.86
2022-10-01T12:27:54.282Z,53.72
2022-10-01T12:30:20.641Z,53.56
2022-10-01T12:32:49.765Z,53.77
2022-10-01T12:35:16.974Z,53.39
2022-10-01T12:37:46.155Z,53.55
2022-10-01T12:40:14.475Z,53.66
2022-10-01T12:42:42.725Z,53.24
2022-10-01T12:45:09.184Z,53.60
2022-10-01T12:47:35.602Z,53.18
2022-10-01T12:50:02.069Z,53.13
2022-10-01T12:52:30.306Z,53.25
2022-10-01T12:54:59.458Z,53.66
2022-10-01T12:57:28.566Z,54.29
2022-10-01T12:59:55.822Z,54.13
2022-10-01T13:02:23.126Z,54.01
2022-10-01T13:04:49.578Z,54.59
2022-10-01T13:07:15.972Z,54.84
2022-10-01T13:09:48.027Z,54.49
2022-10-01T13:12:18.002Z,55.03
2022-10-01T13:14:44.365Z,54.91
2022-10-01T13:17:10.840Z,55.09
2022-10-01T13:19:37.239Z,54.64
2022-10-01T13:22:03.623Z,54.88
2022-10-01T13:24:30.851Z,55.15
2022-10-01T13:26:57.234Z,55.33
2022-10-01T13:29:23.682Z,55.11
2022-10-01T13:31:50.073Z,55.26
2022-10-01T13:34:17.278Z,55.22
2022-10-01T13:36:43.605Z,55.30
2022-10-01T13:39:10.092Z,55.67
2022-10-01T13:41:36.753Z,55.69
2022-10-01T13:44:04.305Z,55.46
2022-10-01T13:46:30.706Z,56.10
2022-10-01T13:48:57.956Z,55.84
2022-10-01T13:51:24.287Z,55.59
2022-10-01T13:53:50.628Z,55.94
2022-10-01T13:56:16.970Z,55.80
2022-10-01T13:58:43.315Z,56.23
2022-10-01T14:01:14.470Z,55.82
2022-10-01T14:03:41.392Z,56.20
2022-10-01T14:06:07.731Z,56.16
2022-10-01T14:08:34.062Z,56.34
2022-10-01T14:11:01.268Z,56.08
2022-10-01T14:13:27.615Z,55.91
2022-10-01T14:15:54.076Z,56.04
2022-10-01T14:18:21.301Z,56.28
2022-10-01T14:20:47.681Z,56.36
2022-10-01T14:23:14.106Z,56.18
2022-10-01T14:25:40.436Z,55.91
2022-10-01T14:28:06.863Z,55.93
2022-10-01T14:30:33.243Z,55.86
2022-10-01T14:32:59.572Z,55.50
2022-10-01T14:35:25.863Z,55.76
2022-10-01T14:37:52.213Z,55.43
2022-10-01T14:40:19.401Z,55.47
2022-10-01T14:42:45.805Z,55.18
2022-10-01T14:45:12.994Z,55.30
2022-10-01T14:47:39.335Z,54.91
2022-10-01T14:50:05.700Z,55.15
2022-10-01T14:52:32.011Z,55.09
2022-10-01T14:54:58.344Z,55.13
2022-10-01T14:57:25.539Z,54.75
2022-10-01T14:59:51.952Z,54.66
2022-10-01T15:02:18.312Z,54.77
2022-10-01T15:04:44.707Z,54.90
2022-10-01T15:07:11.080Z,54.76
2022-10-01T15:09:37.422Z,54.24
2022-10-01T15:12:03.784Z,54.35
2022-10-01T15:14:30.105Z,54.57
2022-10-01T15:16:56.607Z,54.12
2022-10-01T15:19:22.925Z,54.41
2022-10-01T15:21:49.351Z,54.14
2022-10-01T15:24:15.731Z,54.46
2022-10-01T15:26:42.079Z,54.33
2022-10-01T15:29:09.426Z,54.29
2022-10-01T15:31:35.809Z,54.06
2022-10-01T15:34:02.217Z,54.31
2022-10-01T15:36:28.663Z,54.63
2022-10-01T15:38:55.016Z,54.63
2022-10-01T15:41:31.524Z,54.42
2022-10-01T15:43:58.772Z,54.61
2022-10-01T15:46:25.262Z,54.45
2022-10-01T15:48:51.678Z,54.45
2022-10-01T15:51:18.019Z,54.59
2022-10-01T15:53:44.345Z,54.49
2022-10-01T15:56:10.676Z,54.14
2022-10-01T15:58:37.008Z,54.18
2022-10-01T16:01:03.422Z,54.15
2022-10-01T16:03:29.782Z,54.94
2022-10-01T16:05:56.139Z,54.29
2022-10-01T16:08:22.488Z,54.54
2022-10-01T16:10:48.814Z,54.52
2022-10-01T16:13:15.132Z,54.54
2022-10-01T16:15:41.510Z,54.59
2022-10-01T16:18:07.871Z,54.60
2022-10-01T16:20:34.200Z,54.84
2022-10-01T16:23:00.537Z,55.15
2022-10-01T16:25:26.853Z,55.42
2022-10-01T16:27:53.242Z,55.80
2022-10-01T16:30:19.681Z,55.75
2022-10-01T16:32:46.016Z,56.24
2022-10-01T16:35:13.224Z,56.23
2022-10-01T16:37:39.547Z,56.37
2022-10-01T16:40:06.095Z,56.57
2022-10-01T16:42:32.492Z,56.77
2022-10-01T16:44:58.858Z,56.72
2022-10-01T16:47:25.219Z,57.20
2022-10-01T16:49:51.548Z,56.77
2022-10-01T16:52:18.734Z,56.98
2022-10-01T16:54:45.168Z,57.05
2022-10-01T16:57:12.414Z,57.19
2022-10-01T16:59:39.786Z,57.15
2022-10-01T17:02:07.047Z,56.29
2022-10-01T17:04:34.071Z,55.87
2022-10-01T17:07:00.643Z,56.46
2022-10-01T17:09:26.999Z,55.19
2022-10-01T17:11:53.413Z,55.03
2022-10-01T17:14:20.614Z,55.49
2022-10-01T17:16:47.823Z,55.03
2022-10-01T17:19:15.121Z,55.28
2022-10-01T17:21:42.530Z,56.54
2022-10-01T17:24:09.156Z,55.33
2022-10-01T17:26:35.885Z,55.32
2022-10-01T17:29:02.543Z,55.01
2022-10-01T17:31:30.131Z,55.26
2022-10-01T17:33:56.893Z,54.84
2022-10-01T17:36:23.349Z,54.44
2022-10-01T17:38:50.960Z,54.47
2022-10-01T17:41:18.304Z,54.38
2022-10-01T17:43:44.803Z,54.14
2022-10-01T17:46:11.249Z,54.38
2022-10-01T17:48:37.877Z,54.03
2022-10-01T17:51:04.569Z,54.22
2022-10-01T17:53:35.977Z,53.89
2022-10-01T17:56:06.343Z,53.87
2022-10-01T17:58:32.862Z,53.97
2022-10-01T18:00:59.305Z,53.67
2022-10-01T18:03:26.069Z,53.40
2022-10-01T18:05:53.963Z,53.31
2022-10-01T18:08:29.557Z,53.52
2022-10-01T18:11:07.002Z,53.77
2022-10-01T18:13:33.364Z,53.60
2022-10-01T18:16:00.389Z,53.22
2022-10-01T18:19:51.252Z,53.60
2022-10-01T18:21:14.751Z,53.40
2022-10-01T18:23:41.868Z,53.44
2022-10-01T18:26:08.760Z,53.30
2022-10-01T18:28:35.658Z,53.73
2022-10-01T18:31:02.440Z,52.66
2022-10-01T18:33:32.096Z,52.74
2022-10-01T18:36:02.711Z,52.65
2022-10-01T18:38:29.601Z,53.43
2022-10-01T18:40:56.175Z,53.99
2022-10-01T18:43:23.012Z,53.67
2022-10-01T18:45:51.747Z,53.72
2022-10-01T18:48:21.251Z,53.89
2022-10-01T18:50:48.577Z,53.82
2022-10-01T18:53:15.178Z,54.16
2022-10-01T18:55:44.692Z,53.90
2022-10-01T18:58:11.485Z,54.11
2022-10-01T19:00:38.677Z,54.05
2022-10-01T19:03:05.496Z,54.33
2022-10-01T19:05:32.414Z,54.15
2022-10-01T19:07:58.898Z,54.11
2022-10-01T19:10:25.691Z,54.26
2022-10-01T19:12:54.826Z,54.30
2022-10-01T19:15:21.195Z,53.95
2022-10-01T19:17:50.402Z,54.49
2022-10-01T19:20:17.873Z,54.40
2022-10-01T19:22:44.299Z,54.52
2022-10-01T19:25:13.499Z,54.52
2022-10-01T19:27:42.015Z,54.30
2022-10-01T19:30:08.549Z,54.38
2022-10-01T19:32:36.847Z,54.13
2022-10-01T19:35:03.250Z,54.29
2022-10-01T19:37:32.583Z,54.38
2022-10-01T19:39:59.803Z,54.74
2022-10-01T19:42:27.140Z,54.64
2022-10-01T19:44:54.393Z,54.73
2022-10-01T19:47:20.948Z,54.52
2022-10-01T19:49:47.348Z,54.88
2022-10-01T19:52:15.808Z,54.45
2022-10-01T19:54:42.257Z,54.61
2022-10-01T19:57:08.690Z,54.96
2022-10-01T19:59:37.862Z,54.60
2022-10-01T20:02:07.081Z,55.00
2022-10-01T20:04:33.471Z,54.54
2022-10-01T20:06:59.819Z,54.79
2022-10-01T20:09:28.510Z,54.81
2022-10-01T20:11:58.134Z,55.00
2022-10-01T20:14:26.568Z,54.90
2022-10-01T20:16:56.575Z,54.83
2022-10-01T20:19:25.817Z,54.78
2022-10-01T20:21:52.260Z,54.87
2022-10-01T20:24:18.608Z,54.75
2022-10-01T20:26:45.064Z,54.83
2022-10-01T20:29:13.352Z,54.65
2022-10-01T20:31:39.852Z,54.73
2022-10-01T20:34:07.112Z,55.09
2022-10-01T20:36:35.410Z,54.88
2022-10-01T20:39:02.877Z,54.99
2022-10-01T20:41:30.163Z,54.91
2022-10-01T20:43:56.559Z,54.83
2022-10-01T20:46:23.071Z,54.73
2022-10-01T20:48:49.698Z,55.24
2022-10-01T20:51:17.953Z,54.91
2022-10-01T20:53:44.401Z,54.94
2022-10-01T20:56:12.658Z,55.26
2022-10-01T20:58:39.996Z,54.70
2022-10-01T21:01:06.435Z,55.35
2022-10-01T21:03:32.937Z,55.15
2022-10-01T21:05:59.418Z,55.23
2022-10-01T21:08:25.871Z,55.52
2022-10-01T21:10:55.032Z,55.27
2022-10-01T21:13:22.287Z,55.13
2022-10-01T21:15:50.560Z,55.60
2022-10-01T21:18:16.971Z,55.30
2022-10-01T21:20:44.291Z,55.05
2022-10-01T21:23:10.754Z,55.45
2022-10-01T21:25:39.917Z,55.09
2022-10-01T21:28:07.160Z,55.23
2022-10-01T21:30:36.367Z,55.20
2022-10-01T21:33:02.847Z,55.23
2022-10-01T21:35:29.329Z,55.31
2022-10-01T21:37:57.633Z,55.25
2022-10-01T21:40:24.913Z,55.29
2022-10-01T21:42:51.332Z,54.67
2022-10-01T21:45:18.629Z,54.22
2022-10-01T21:47:45.053Z,54.49
2022-10-01T21:50:12.367Z,54.38
2022-10-01T21:52:39.683Z,53.37
2022-10-01T21:55:06.139Z,53.68
2022-10-01T21:57:32.545Z,53.48
2022-10-01T21:59:59.021Z,53.02
2022-10-01T22:02:26.355Z,52.55
2022-10-01T22:04:52.811Z,52.87
2022-10-01T22:07:20.100Z,53.16
2022-10-01T22:09:47.477Z,53.49
2022-10-01T22:12:14.830Z,53.44
2022-10-01T22:14:41.286Z,53.25
2022-10-01T22:17:08.762Z,53.19
2022-10-01T22:19:35.221Z,53.42
2022-10-01T22:22:01.665Z,53.74
2022-10-01T22:24:28.129Z,53.31
2022-10-01T22:26:54.547Z,53.74
2022-10-01T22:29:21.915Z,53.16
2022-10-01T22:31:48.414Z,53.05
2022-10-01T22:34:15.776Z,53.43
2022-10-01T22:36:43.136Z,53.02
2022-10-01T22:39:10.484Z,52.97
2022-10-01T22:41:36.904Z,52.99
2022-10-01T22:44:04.335Z,52.99
2022-10-01T22:46:30.727Z,53.15
2022-10-01T22:48:58.085Z,53.06
2022-10-01T22:51:25.413Z,52.75
2022-10-01T22:53:52.664Z,53.09
2022-10-01T22:56:19.914Z,53.08
2022-10-01T22:58:46.323Z,52.99
2022-10-01T23:01:13.618Z,53.37
2022-10-01T23:03:40.892Z,53.34
2022-10-01T23:06:08.135Z,53.00
2022-10-01T23:08:35.356Z,52.86
2022-10-01T23:11:03.709Z,53.05
2022-10-01T23:13:30.932Z,53.22
2022-10-01T23:15:57.486Z,53.03
2022-10-01T23:18:24.024Z,53.30
2022-10-01T23:20:52.267Z,53.38
2022-10-01T23:23:18.699Z,53.05
2022-10-01T23:25:45.043Z,53.28
2022-10-01T23:28:11.573Z,53.08
2022-10-01T23:30:37.984Z,52.97
2022-10-01T23:33:04.435Z,53.14
2022-10-01T23:35:30.824Z,53.28
2022-10-01T23:37:58.110Z,52.82
2022-10-01T23:40:24.445Z,53.22
2022-10-01T23:42:51.641Z,53.09
2022-10-01T23:45:17.991Z,52.65
2022-10-01T23:47:44.345Z,53.17
2022-10-01T23:50:10.697Z,52.97
2022-10-01T23:52:37.025Z,53.27
2022-10-01T23:55:03.369Z,53.01
2022-10-01T23:57:30.572Z,53.21
2022-10-01T23:59:56.935Z,53.00
